Time;durP1;ratioP1;P1;durP2;ratioP2;P2;SDS_P1;SDS_P2;PMS_P1;PMS_P2;Temp;Humidity;BMP_temperature;BMP_pressure;BME280_temperature;BME280_humidity;BME280_pressure;Samples;Min_cycle;Max_cycle;Signal;HPM_P1;HPM_P2
2021/12/06 00:02:25;;;;;;;24.17;16.15;;;2.40;88.80;;;;;;5071034;28;20453;-55
2021/12/06 00:04:53;;;;;;;23.65;16.58;;;2.40;88.90;;;;;;5069068;28;20024;-53
2021/12/06 00:07:23;;;;;;;26.55;16.90;;;2.40;89.00;;;;;;5070927;28;20461;-53
2021/12/06 00:09:56;;;;;;;27.00;16.80;;;2.40;88.90;;;;;;5073507;28;20024;-54
2021/12/06 00:12:22;;;;;;;28.50;18.08;;;2.50;89.00;;;;;;5090310;28;20330;-52
2021/12/06 00:14:50;;;;;;;25.65;18.45;;;2.50;89.10;;;;;;5052262;28;20029;-55
2021/12/06 00:17:17;;;;;;;25.15;17.27;;;2.50;89.10;;;;;;5071068;28;20074;-52
2021/12/06 00:19:44;;;;;;;24.92;18.33;;;2.50;89.00;;;;;;5070723;28;20135;-55
2021/12/06 00:22:15;;;;;;;29.75;18.30;;;2.50;89.20;;;;;;5070613;28;20059;-50
2021/12/06 00:24:42;;;;;;;25.55;18.08;;;2.40;89.10;;;;;;5070923;28;20063;-54
2021/12/06 00:27:08;;;;;;;27.40;18.13;;;2.50;89.40;;;;;;5070812;28;20337;-54
2021/12/06 00:29:37;;;;;;;28.17;19.25;;;2.40;89.40;;;;;;5070358;28;20057;-54
2021/12/06 00:32:04;;;;;;;26.95;18.05;;;2.40;89.40;;;;;;5070589;28;20085;-51
2021/12/06 00:34:34;;;;;;;28.70;19.20;;;2.40;89.30;;;;;;5070209;28;20047;-49
2021/12/06 00:37:53;;;;;;;;;;;2.40;89.40;;;;;;5055714;28;20389;-51
2021/12/06 00:39:54;;;;;;;25.58;16.63;;;2.30;89.40;;;;;;5062198;28;19916;-52
2021/12/06 00:42:26;;;;;;;25.30;17.95;;;2.30;89.40;;;;;;5063276;28;20028;-51
2021/12/06 00:44:56;;;;;;;25.52;16.55;;;2.20;89.30;;;;;;5055736;28;20031;-54
2021/12/06 00:47:23;;;;;;;28.65;16.50;;;2.20;89.30;;;;;;5052886;28;20039;-50
2021/12/06 00:49:53;;;;;;;25.50;17.42;;;2.20;89.30;;;;;;5069937;28;20037;-50
2021/12/06 00:52:21;;;;;;;26.60;17.42;;;2.20;89.10;;;;;;5070428;28;20119;-49
2021/12/06 00:54:48;;;;;;;23.73;16.17;;;2.10;89.10;;;;;;5070191;28;20061;-48
2021/12/06 00:57:16;;;;;;;21.48;16.30;;;2.10;89.20;;;;;;5070047;28;20109;-46
2021/12/06 00:59:43;;;;;;;25.80;17.50;;;2.00;89.30;;;;;;5069362;28;20028;-44
2021/12/06 01:02:11;;;;;;;26.15;17.08;;;2.00;89.30;;;;;;5069649;28;20444;-45
2021/12/06 01:04:39;;;;;;;23.85;17.83;;;2.00;89.40;;;;;;5066400;28;20339;-44
2021/12/06 01:07:07;;;;;;;28.15;17.70;;;1.90;89.50;;;;;;5066562;28;20068;-43
2021/12/06 01:09:34;;;;;;;29.58;18.70;;;2.00;89.60;;;;;;5070959;28;20066;-43
2021/12/06 01:12:02;;;;;;;29.17;19.50;;;1.90;89.60;;;;;;5068177;28;20453;-43
2021/12/06 01:14:28;;;;;;;25.63;17.63;;;1.90;89.70;;;;;;5069481;28;20052;-42
2021/12/06 01:16:55;;;;;;;30.00;19.00;;;1.90;89.70;;;;;;5062695;28;20033;-44
2021/12/06 01:19:28;;;;;;;26.95;17.02;;;1.90;89.80;;;;;;5069974;28;20029;-43
2021/12/06 01:24:56;;;;;;;29.98;19.50;;;1.90;89.90;;;;;;5016895;28;20082;-44
2021/12/06 01:32:48;;;;;;;30.90;19.00;;;1.90;90.10;;;;;;5069227;28;20044;-44
2021/12/06 01:40:43;;;;;;;27.90;19.67;;;1.90;90.10;;;;;;5069615;28;20571;-44
2021/12/06 01:43:10;;;;;;;31.65;21.58;;;1.90;90.10;;;;;;5056079;28;20040;-45
2021/12/06 01:45:37;;;;;;;27.92;19.25;;;1.90;90.10;;;;;;5069671;28;20103;-44
2021/12/06 01:48:04;;;;;;;25.70;18.00;;;1.80;90.10;;;;;;5070981;28;20094;-43
2021/12/06 01:50:32;;;;;;;32.50;19.30;;;1.80;90.00;;;;;;5076103;28;20075;-45
2021/12/06 01:53:02;;;;;;;30.25;19.88;;;1.80;90.00;;;;;;5064313;28;20025;-44
2021/12/06 01:55:33;;;;;;;30.35;19.00;;;1.70;90.10;;;;;;5075871;28;20078;-45
2021/12/06 01:58:04;;;;;;;27.17;18.23;;;1.70;90.00;;;;;;5075866;28;20111;-45
2021/12/06 02:00:49;;;;;;;27.33;19.13;;;1.80;90.10;;;;;;5058475;28;20116;-44
2021/12/06 02:03:16;;;;;;;28.08;19.75;;;1.90;90.20;;;;;;5074339;28;20050;-43
2021/12/06 02:05:49;;;;;;;32.95;19.95;;;1.80;89.90;;;;;;5075768;28;20029;-44
2021/12/06 02:08:16;;;;;;;27.60;20.10;;;1.90;90.00;;;;;;5076224;28;20453;-45
2021/12/06 02:10:44;;;;;;;29.67;19.52;;;1.90;90.10;;;;;;5085965;28;20107;-46
2021/12/06 02:13:11;;;;;;;30.20;18.50;;;1.90;90.10;;;;;;5088603;28;20460;-44
2021/12/06 02:15:46;;;;;;;26.77;18.83;;;1.90;90.10;;;;;;5075772;28;20043;-46
2021/12/06 02:18:38;;;;;;;28.65;19.08;;;1.90;90.10;;;;;;5075835;28;20027;-44
2021/12/06 02:21:25;;;;;;;;;;;1.90;90.10;;;;;;5075376;28;20041;-43
2021/12/06 02:23:51;;;;;;;27.77;19.00;;;2.00;90.10;;;;;;5076122;28;19908;-47
2021/12/06 02:26:19;;;;;;;29.73;19.60;;;1.90;90.00;;;;;;5075276;28;20054;-45
2021/12/06 02:28:47;;;;;;;29.83;19.92;;;1.90;90.20;;;;;;5074655;28;20050;-45
2021/12/06 02:31:17;;;;;;;32.30;21.13;;;1.90;90.10;;;;;;5075948;28;20032;-46
2021/12/06 02:33:49;;;;;;;27.38;18.63;;;1.90;90.20;;;;;;5075661;28;20028;-45
2021/12/06 02:36:18;;;;;;;30.73;20.67;;;1.90;90.10;;;;;;5075483;28;20390;-44
2021/12/06 02:38:46;;;;;;;29.92;20.35;;;1.90;90.10;;;;;;5075658;28;20036;-46
2021/12/06 02:41:17;;;;;;;30.98;20.75;;;1.90;90.10;;;;;;5075494;28;20511;-50
2021/12/06 02:43:47;;;;;;;27.83;20.10;;;1.90;90.10;;;;;;5075735;28;20032;-48
2021/12/06 02:46:14;;;;;;;30.30;21.38;;;1.90;90.20;;;;;;5075345;28;20028;-46
2021/12/06 02:48:40;;;;;;;29.83;20.90;;;1.90;90.20;;;;;;5075378;28;20036;-45
2021/12/06 02:51:09;;;;;;;31.05;20.98;;;1.90;90.20;;;;;;5075709;28;20063;-45
2021/12/06 02:53:37;;;;;;;32.20;21.02;;;1.90;90.20;;;;;;5051610;28;20025;-46
2021/12/06 02:56:17;;;;;;;29.73;21.17;;;1.90;90.20;;;;;;5059519;28;20025;-48
2021/12/06 02:58:56;;;;;;;29.63;20.73;;;1.90;90.20;;;;;;5072094;28;20855;-47
2021/12/06 03:01:30;;;;;;;30.35;20.17;;;1.90;90.30;;;;;;5072117;28;20036;-50
2021/12/06 03:04:00;;;;;;;30.13;22.17;;;2.00;90.30;;;;;;5055930;28;20036;-47
2021/12/06 03:06:28;;;;;;;36.60;24.73;;;2.00;90.40;;;;;;5072394;28;20074;-47
2021/12/06 03:09:08;;;;;;;29.70;21.67;;;2.00;90.30;;;;;;5055034;28;20040;-47
2021/12/06 03:11:55;;;;;;;33.00;22.17;;;2.10;90.30;;;;;;5069666;28;20043;-46
2021/12/06 03:14:26;;;;;;;29.38;20.95;;;2.10;90.40;;;;;;5072173;28;20024;-50
2021/12/06 03:16:57;;;;;;;31.02;20.92;;;2.10;90.30;;;;;;5066016;28;20154;-49
2021/12/06 03:19:24;;;;;;;35.80;24.17;;;2.10;90.30;;;;;;5051832;28;20017;-49
2021/12/06 03:21:52;;;;;;;32.90;22.50;;;2.20;90.20;;;;;;5064186;28;20346;-47
2021/12/06 03:24:20;;;;;;;26.98;19.67;;;2.20;90.10;;;;;;5071852;28;20028;-51
2021/12/06 03:26:47;;;;;;;30.67;21.83;;;2.20;90.10;;;;;;5071479;28;20034;-48
2021/12/06 03:29:13;;;;;;;33.40;23.33;;;2.20;90.10;;;;;;5071382;28;20048;-52
2021/12/06 03:31:41;;;;;;;37.13;24.70;;;2.20;90.10;;;;;;5071455;28;20484;-48
2021/12/06 03:34:11;;;;;;;34.42;22.38;;;2.20;90.10;;;;;;5069399;28;20030;-51
2021/12/06 03:36:39;;;;;;;34.88;23.52;;;2.30;90.10;;;;;;5064001;28;20028;-50
2021/12/06 03:39:20;;;;;;;33.17;22.70;;;2.30;90.00;;;;;;5071497;28;20069;-52
2021/12/06 03:41:53;;;;;;;36.25;24.38;;;2.30;90.00;;;;;;5055974;28;20086;-49
2021/12/06 03:44:21;;;;;;;38.80;24.45;;;2.30;90.10;;;;;;5071662;28;20429;-51
2021/12/06 03:46:50;;;;;;;33.30;22.55;;;2.30;90.00;;;;;;5055871;28;20487;-50
2021/12/06 03:49:20;;;;;;;34.92;23.60;;;2.30;90.00;;;;;;5072019;28;20032;-49
2021/12/06 03:51:47;;;;;;;36.22;24.33;;;2.40;90.10;;;;;;5055306;28;20040;-51
2021/12/06 03:54:19;;;;;;;35.65;22.42;;;2.40;90.10;;;;;;5071453;28;20025;-49
2021/12/06 03:56:47;;;;;;;36.60;22.65;;;2.40;90.10;;;;;;5070947;28;20454;-55
2021/12/06 03:59:15;;;;;;;35.75;23.15;;;2.40;90.00;;;;;;5071186;28;20024;-54
2021/12/06 04:01:42;;;;;;;34.60;23.98;;;2.40;90.00;;;;;;5070859;28;20583;-53
2021/12/06 04:04:12;;;;;;;34.88;21.83;;;2.40;89.90;;;;;;5070971;28;20085;-52
2021/12/06 04:06:44;;;;;;;33.95;23.25;;;2.40;89.80;;;;;;5070999;28;20025;-52
2021/12/06 04:09:15;;;;;;;36.92;22.27;;;2.40;90.00;;;;;;5070762;28;20037;-51
2021/12/06 04:11:42;;;;;;;33.60;23.65;;;2.40;90.00;;;;;;5083610;28;20068;-50
2021/12/06 04:14:09;;;;;;;33.83;23.70;;;2.40;89.90;;;;;;5071259;28;20032;-53
2021/12/06 04:16:37;;;;;;;34.67;23.48;;;2.40;89.70;;;;;;5070721;28;20043;-52
2021/12/06 04:19:06;;;;;;;32.30;22.15;;;2.40;89.80;;;;;;5070899;28;20047;-50
2021/12/06 04:21:34;;;;;;;30.63;20.95;;;2.40;89.90;;;;;;5070786;28;20028;-50
2021/12/06 04:24:01;;;;;;;32.53;22.65;;;2.40;89.80;;;;;;5070858;28;20029;-50
2021/12/06 04:26:27;;;;;;;30.95;22.00;;;2.40;89.70;;;;;;5070513;28;20032;-50
2021/12/06 04:29:01;;;;;;;33.05;22.40;;;2.40;89.50;;;;;;5070428;28;20385;-52
2021/12/06 04:31:30;;;;;;;38.35;23.17;;;2.40;89.60;;;;;;5070362;28;20030;-50
2021/12/06 04:33:58;;;;;;;;;;;2.40;89.50;;;;;;5069579;28;20042;-52
2021/12/06 04:36:25;;;;;;;30.58;20.90;;;2.40;89.60;;;;;;5068994;28;20387;-50
2021/12/06 04:38:51;;;;;;;34.97;23.23;;;2.40;89.60;;;;;;5070511;28;20119;-52
2021/12/06 04:41:18;;;;;;;33.72;24.15;;;2.40;89.50;;;;;;5070410;28;20135;-49
2021/12/06 04:43:45;;;;;;;30.25;21.33;;;2.40;89.60;;;;;;5068929;28;20040;-50
2021/12/06 04:46:10;;;;;;;32.28;22.17;;;2.40;89.70;;;;;;5070304;28;20110;-50
2021/12/06 04:48:39;;;;;;;33.70;23.23;;;2.40;89.70;;;;;;5070409;28;20481;-48
2021/12/06 04:51:07;;;;;;;37.10;23.38;;;2.50;89.70;;;;;;5070002;28;20037;-51
2021/12/06 04:53:41;;;;;;;33.33;22.85;;;2.40;89.60;;;;;;5070494;28;20107;-54
2021/12/06 04:56:19;;;;;;;34.95;22.33;;;2.40;89.50;;;;;;5069968;28;20028;-51
2021/12/06 04:58:52;;;;;;;33.45;23.27;;;2.40;89.50;;;;;;5070143;28;20059;-49
2021/12/06 05:01:24;;;;;;;35.08;21.83;;;2.40;89.30;;;;;;5070184;28;20112;-49
2021/12/06 05:03:52;;;;;;;35.63;23.23;;;2.40;89.30;;;;;;5070006;28;20032;-48
2021/12/06 05:06:23;;;;;;;30.30;22.30;;;2.40;89.40;;;;;;5069652;28;20104;-48
2021/12/06 05:08:54;;;;;;;35.60;22.80;;;2.50;89.30;;;;;;5069885;28;20128;-52
2021/12/06 05:11:24;;;;;;;34.03;22.23;;;2.40;89.30;;;;;;5075668;28;20108;-48
2021/12/06 05:13:53;;;;;;;38.13;23.33;;;2.50;89.30;;;;;;5069946;28;20027;-48
2021/12/06 05:16:22;;;;;;;33.97;24.17;;;2.50;89.20;;;;;;5069443;28;20085;-49
2021/12/06 05:18:50;;;;;;;32.90;22.90;;;2.50;89.20;;;;;;5069558;28;20055;-50
2021/12/06 05:21:20;;;;;;;33.22;23.52;;;2.40;89.00;;;;;;5069315;28;20101;-48
2021/12/06 05:23:47;;;;;;;41.80;24.92;;;2.50;89.00;;;;;;5070069;28;20063;-48
2021/12/06 05:26:13;;;;;;;32.35;22.90;;;2.50;88.90;;;;;;5069821;28;20533;-48
2021/12/06 05:28:45;;;;;;;35.10;22.55;;;2.50;88.90;;;;;;5052304;28;20140;-48
2021/12/06 05:31:17;;;;;;;32.85;21.75;;;2.50;88.80;;;;;;5051870;28;20044;-49
2021/12/06 05:33:51;;;;;;;34.85;22.92;;;2.50;88.80;;;;;;5069906;28;20028;-53
2021/12/06 05:36:18;;;;;;;33.63;24.23;;;2.50;88.80;;;;;;5069830;28;20331;-53
2021/12/06 05:38:45;;;;;;;36.17;22.17;;;2.50;88.80;;;;;;5069807;28;20032;-49
2021/12/06 05:41:12;;;;;;;32.25;22.08;;;2.50;88.80;;;;;;5069188;28;20033;-51
2021/12/06 05:43:39;;;;;;;34.03;22.15;;;2.50;88.90;;;;;;5070074;28;20029;-49
2021/12/06 05:46:06;;;;;;;33.40;22.08;;;2.50;88.90;;;;;;5065721;28;20485;-47
2021/12/06 05:48:36;;;;;;;34.95;23.35;;;2.50;88.80;;;;;;5069982;28;20524;-49
2021/12/06 05:51:03;;;;;;;29.27;20.75;;;2.50;88.90;;;;;;5069552;28;20042;-48
2021/12/06 05:53:31;;;;;;;33.90;21.65;;;2.50;88.80;;;;;;5069518;28;20025;-47
2021/12/06 05:55:58;;;;;;;27.70;20.38;;;2.50;89.00;;;;;;5069700;28;20090;-49
2021/12/06 05:58:26;;;;;;;32.25;21.73;;;2.50;89.00;;;;;;5069400;28;20043;-47
2021/12/06 06:00:55;;;;;;;30.90;20.42;;;2.50;88.90;;;;;;5069154;28;20449;-46
2021/12/06 06:03:22;;;;;;;30.35;21.85;;;2.50;88.90;;;;;;5051790;28;20367;-47
2021/12/06 06:05:50;;;;;;;33.58;21.30;;;2.50;88.90;;;;;;5068969;28;20671;-47
2021/12/06 06:08:20;;;;;;;32.17;20.90;;;2.50;89.00;;;;;;5067298;28;20116;-47
2021/12/06 06:10:50;;;;;;;33.00;21.35;;;2.50;89.10;;;;;;5075159;28;20039;-49
2021/12/06 06:13:19;;;;;;;31.08;21.95;;;2.50;89.10;;;;;;5068581;28;20023;-47
2021/12/06 06:15:49;;;;;;;31.52;21.63;;;2.50;89.20;;;;;;5069159;28;20455;-50
2021/12/06 06:18:16;;;;;;;31.73;21.25;;;2.50;89.20;;;;;;5068960;28;20025;-48
2021/12/06 06:20:51;;;;;;;29.95;19.33;;;2.50;89.20;;;;;;5069400;28;20077;-46
2021/12/06 06:23:19;;;;;;;34.83;21.67;;;2.50;89.20;;;;;;5069402;28;20448;-47
2021/12/06 06:25:45;;;;;;;29.50;20.52;;;2.50;89.10;;;;;;5068953;28;20036;-47
2021/12/06 06:28:12;;;;;;;42.40;28.20;;;2.40;89.10;;;;;;5067835;28;20033;-47
2021/12/06 06:30:39;;;;;;;33.78;22.10;;;2.40;88.90;;;;;;5068831;28;20521;-48
2021/12/06 06:33:05;;;;;;;33.17;21.02;;;2.40;89.00;;;;;;5065530;28;20481;-48
2021/12/06 06:35:33;;;;;;;31.60;21.52;;;2.40;88.90;;;;;;5072876;28;20492;-47
2021/12/06 06:38:00;;;;;;;36.83;23.05;;;2.40;89.00;;;;;;5072653;28;20029;-47
2021/12/06 06:40:27;;;;;;;31.65;22.33;;;2.40;89.10;;;;;;5073000;28;20501;-47
2021/12/06 06:42:54;;;;;;;32.88;23.23;;;2.40;89.00;;;;;;5072222;28;20024;-47
2021/12/06 06:45:22;;;;;;;31.80;22.00;;;2.40;89.00;;;;;;5071618;28;20033;-45
2021/12/06 06:47:49;;;;;;;35.42;22.52;;;2.40;88.90;;;;;;5072917;28;20045;-44
2021/12/06 06:50:17;;;;;;;32.55;20.83;;;2.30;88.90;;;;;;5071588;28;20096;-43
2021/12/06 06:52:44;;;;;;;37.42;23.52;;;2.20;88.80;;;;;;5072362;28;20036;-45
2021/12/06 06:55:13;;;;;;;32.70;22.13;;;2.20;88.90;;;;;;5071263;28;20055;-43
2021/12/06 06:57:40;;;;;;;30.08;20.48;;;2.10;88.90;;;;;;5055035;28;20484;-44
2021/12/06 07:00:12;;;;;;;33.50;22.30;;;2.00;88.90;;;;;;5071477;28;20464;-42
2021/12/06 07:02:40;;;;;;;33.28;21.70;;;2.00;88.90;;;;;;5065361;28;20044;-47
2021/12/06 07:05:10;;;;;;;31.73;22.65;;;1.90;89.00;;;;;;5072314;28;20028;-43
2021/12/06 07:07:37;;;;;;;36.60;23.48;;;1.90;89.10;;;;;;5072046;28;20024;-45
2021/12/06 07:10:06;;;;;;;35.05;22.90;;;2.00;89.20;;;;;;5076954;28;20033;-46
2021/12/06 07:12:41;;;;;;;38.53;24.67;;;2.00;89.20;;;;;;5092670;28;20103;-43
2021/12/06 07:15:11;;;;;;;33.75;22.58;;;1.90;89.20;;;;;;5074043;28;20028;-48
2021/12/06 07:17:39;;;;;;;38.28;23.15;;;1.90;89.30;;;;;;5072077;28;20028;-45
2021/12/06 07:20:12;;;;;;;39.10;24.67;;;1.90;89.30;;;;;;5059728;28;20036;-43
2021/12/06 07:22:39;;;;;;;33.88;23.13;;;1.90;89.30;;;;;;5071974;28;20061;-43
2021/12/06 07:25:07;;;;;;;36.47;25.33;;;1.80;89.20;;;;;;5072065;28;20070;-47
2021/12/06 07:27:34;;;;;;;36.88;22.92;;;1.70;89.20;;;;;;5071403;28;20102;-47
2021/12/06 07:30:00;;;;;;;39.15;24.20;;;1.60;89.10;;;;;;5071017;28;20057;-45
2021/12/06 07:32:32;;;;;;;40.90;25.92;;;1.60;89.40;;;;;;5070372;28;20082;-43
2021/12/06 07:35:02;;;;;;;36.42;24.98;;;1.60;89.30;;;;;;5067318;28;20048;-45
2021/12/06 07:37:29;;;;;;;37.50;25.23;;;1.50;89.30;;;;;;5063783;28;20040;-48
2021/12/06 07:39:58;;;;;;;41.35;26.63;;;1.50;89.30;;;;;;5062510;28;20032;-44
2021/12/06 07:42:25;;;;;;;;;;;1.60;89.50;;;;;;5071917;28;20036;-44
2021/12/06 07:44:52;;;;;;;37.88;25.25;;;1.50;89.30;;;;;;5070637;28;20371;-43
2021/12/06 07:47:19;;;;;;;38.88;25.38;;;1.50;89.40;;;;;;5071657;28;20032;-44
2021/12/06 07:49:46;;;;;;;44.03;28.17;;;1.50;89.40;;;;;;5071517;28;20037;-45
2021/12/06 07:52:13;;;;;;;40.28;26.05;;;1.50;89.30;;;;;;5071372;28;20454;-43
2021/12/06 07:54:40;;;;;;;40.80;25.25;;;1.50;89.40;;;;;;5071118;28;20032;-44
2021/12/06 07:57:08;;;;;;;38.22;24.02;;;1.50;89.40;;;;;;5070979;28;20093;-44
2021/12/06 07:59:37;;;;;;;41.45;26.23;;;1.50;89.40;;;;;;5071449;28;20044;-44
2021/12/06 08:02:08;;;;;;;37.75;25.20;;;1.50;89.40;;;;;;5070678;28;20469;-43
2021/12/06 08:04:35;;;;;;;39.85;25.50;;;1.50;89.40;;;;;;5070943;28;20509;-44
2021/12/06 08:07:02;;;;;;;42.55;28.50;;;1.50;89.40;;;;;;5070790;28;20086;-44
2021/12/06 08:09:29;;;;;;;39.05;24.70;;;1.50;89.30;;;;;;5065781;28;20041;-45
2021/12/06 08:11:59;;;;;;;39.05;27.58;;;1.50;89.40;;;;;;5085339;28;20036;-44
2021/12/06 08:14:26;;;;;;;;;;;1.50;89.50;;;;;;5071616;28;20035;-46
2021/12/06 08:16:53;;;;;;;46.53;25.27;;;1.50;89.30;;;;;;5070423;28;19908;-46
2021/12/06 08:19:19;;;;;;;44.88;27.58;;;1.50;89.40;;;;;;5070938;28;20040;-45
2021/12/06 08:21:46;;;;;;;44.80;28.23;;;1.50;89.40;;;;;;5070813;28;20029;-42
2021/12/06 08:24:15;;;;;;;38.45;25.80;;;1.60;89.50;;;;;;5071073;28;20028;-47
2021/12/06 08:26:43;;;;;;;41.50;25.55;;;1.60;89.40;;;;;;5070466;28;20353;-48
2021/12/06 08:29:13;;;;;;;38.10;27.42;;;1.60;89.40;;;;;;5070531;28;20438;-44
2021/12/06 08:31:43;;;;;;;39.17;25.15;;;1.50;89.40;;;;;;5070608;28;20472;-44
2021/12/06 08:34:10;;;;;;;41.15;27.88;;;1.60;89.40;;;;;;5070167;28;20034;-45
2021/12/06 08:36:37;;;;;;;41.10;27.27;;;1.60;89.50;;;;;;5068303;28;20105;-43
2021/12/06 08:39:06;;;;;;;46.13;27.23;;;1.70;89.30;;;;;;5070378;28;20413;-44
2021/12/06 08:41:33;;;;;;;43.90;27.17;;;1.70;89.30;;;;;;5070027;28;20032;-45
2021/12/06 08:44:02;;;;;;;40.78;27.13;;;1.80;89.10;;;;;;5069290;28;20485;-46
2021/12/06 08:46:32;;;;;;;;;;;1.80;88.90;;;;;;5070572;28;20106;-44
2021/12/06 08:49:02;;;;;;;42.83;25.40;;;1.90;88.90;;;;;;5070643;28;19914;-46
2021/12/06 08:51:31;;;;;;;;;;;2.00;88.80;;;;;;5070191;28;20440;-44
2021/12/06 08:54:00;;;;;;;40.83;26.13;;;2.00;88.60;;;;;;5070366;28;19922;-43
2021/12/06 08:56:28;;;;;;;42.90;26.10;;;2.10;88.40;;;;;;5068585;28;20270;-45
2021/12/06 08:58:57;;;;;;;40.00;26.27;;;2.20;88.40;;;;;;5068843;28;20392;-43
2021/12/06 09:01:25;;;;;;;42.72;26.05;;;2.20;88.10;;;;;;5052984;28;20470;-46
2021/12/06 09:03:52;;;;;;;42.75;26.33;;;2.20;87.90;;;;;;5069971;28;20036;-44
2021/12/06 09:06:20;;;;;;;39.88;26.80;;;2.30;87.80;;;;;;5070240;28;20510;-45
2021/12/06 09:08:46;;;;;;;41.15;26.80;;;2.20;87.70;;;;;;5070127;28;20044;-46
2021/12/06 09:11:12;;;;;;;42.08;27.67;;;2.20;87.70;;;;;;5084653;28;20081;-46
2021/12/06 09:13:41;;;;;;;40.25;28.83;;;2.20;87.70;;;;;;5072712;28;20042;-47
2021/12/06 09:16:10;;;;;;;43.92;27.02;;;2.20;87.60;;;;;;5070528;28;20120;-49
2021/12/06 09:18:38;;;;;;;40.28;27.25;;;2.20;87.80;;;;;;5054789;28;20032;-50
2021/12/06 09:21:10;;;;;;;45.35;28.50;;;2.20;88.00;;;;;;5069885;28;20127;-49
2021/12/06 09:23:37;;;;;;;43.97;29.08;;;2.20;88.00;;;;;;5063009;28;20028;-47
2021/12/06 09:26:05;;;;;;;47.25;29.35;;;2.20;88.00;;;;;;5069596;28;20051;-50
2021/12/06 09:28:32;;;;;;;45.67;28.63;;;2.10;88.00;;;;;;5069315;28;20131;-49
2021/12/06 09:30:59;;;;;;;44.22;28.77;;;2.10;88.30;;;;;;5051573;28;20059;-49
2021/12/06 09:33:26;;;;;;;47.33;29.08;;;2.10;88.50;;;;;;5069751;28;20056;-49
2021/12/06 09:35:57;;;;;;;44.70;28.13;;;2.00;88.40;;;;;;5068424;28;20032;-47
2021/12/06 09:38:28;;;;;;;44.53;28.77;;;2.10;88.50;;;;;;5060201;28;20025;-50
2021/12/06 09:40:57;;;;;;;45.42;28.88;;;2.00;88.60;;;;;;5068439;28;20037;-48
2021/12/06 09:43:26;;;;;;;52.03;31.25;;;2.00;88.60;;;;;;5032216;28;20116;-47
2021/12/06 09:45:53;;;;;;;44.65;29.90;;;2.00;88.50;;;;;;5057186;28;20039;-54
2021/12/06 09:48:21;;;;;;;45.60;31.27;;;2.00;88.30;;;;;;5069469;28;20089;-51
2021/12/06 09:50:58;;;;;;;46.78;30.45;;;2.00;88.40;;;;;;5069219;28;20558;-49
2021/12/06 09:53:28;;;;;;;45.25;28.33;;;2.00;88.30;;;;;;5033196;28;20128;-50
2021/12/06 09:56:01;;;;;;;50.88;31.50;;;2.00;88.40;;;;;;5056132;28;20024;-50
2021/12/06 09:58:35;;;;;;;48.05;30.75;;;2.00;88.30;;;;;;5066879;28;20029;-48
2021/12/06 10:01:12;;;;;;;45.80;29.80;;;2.00;88.40;;;;;;5068853;28;20052;-46
2021/12/06 10:03:39;;;;;;;50.13;30.17;;;2.10;88.20;;;;;;5065514;28;20028;-47
2021/12/06 10:06:06;;;;;;;47.28;29.92;;;2.10;88.10;;;;;;5069072;28;20033;-44
2021/12/06 10:08:39;;;;;;;44.78;29.23;;;2.10;88.10;;;;;;5062506;28;20133;-49
2021/12/06 10:11:07;;;;;;;45.55;29.02;;;2.10;88.10;;;;;;5079587;28;20377;-52
2021/12/06 10:13:35;;;;;;;44.55;29.02;;;2.10;88.20;;;;;;5072930;28;20025;-47
2021/12/06 10:16:04;;;;;;;45.45;28.15;;;2.10;88.10;;;;;;5072669;28;20027;-47
2021/12/06 10:18:30;;;;;;;45.83;28.60;;;2.10;88.20;;;;;;5073003;28;20017;-44
2021/12/06 10:20:57;;;;;;;43.17;27.98;;;2.10;88.10;;;;;;5071797;28;20518;-46
2021/12/06 10:23:24;;;;;;;43.60;26.23;;;2.00;88.00;;;;;;5072873;28;20177;-44
2021/12/06 10:25:53;;;;;;;45.55;28.45;;;2.00;88.00;;;;;;5073041;28;20461;-46
2021/12/06 10:28:23;;;;;;;44.28;27.10;;;2.00;88.10;;;;;;5072772;28;20103;-45
2021/12/06 10:30:56;;;;;;;44.92;27.48;;;2.00;88.20;;;;;;5072345;28;20033;-44
2021/12/06 10:33:26;;;;;;;45.90;27.52;;;2.00;88.20;;;;;;5073167;28;20357;-46
2021/12/06 10:36:00;;;;;;;43.40;27.73;;;2.00;88.20;;;;;;5056107;28;20032;-47
2021/12/06 10:38:53;;;;;;;43.50;27.80;;;2.00;88.10;;;;;;5071961;28;20020;-50
2021/12/06 10:41:29;;;;;;;45.17;26.20;;;1.90;88.20;;;;;;5072771;28;20457;-48
2021/12/06 10:44:10;;;;;;;47.85;27.67;;;1.90;88.30;;;;;;5072557;28;20039;-44
2021/12/06 10:46:43;;;;;;;47.85;27.17;;;1.90;88.30;;;;;;5072137;28;20035;-43
2021/12/06 10:49:13;;;;;;;47.83;27.67;;;1.90;88.50;;;;;;5054968;28;20107;-46
2021/12/06 10:51:43;;;;;;;44.38;26.08;;;1.90;88.50;;;;;;5072265;28;20154;-46
2021/12/06 10:54:19;;;;;;;45.30;26.85;;;1.90;88.70;;;;;;5072514;28;20039;-44
2021/12/06 10:56:51;;;;;;;43.92;27.35;;;2.00;88.80;;;;;;5072086;28;20115;-42
2021/12/06 10:59:19;;;;;;;49.67;28.27;;;2.00;88.60;;;;;;5071888;28;20031;-44
2021/12/06 11:01:48;;;;;;;49.15;25.63;;;2.00;88.50;;;;;;5072111;28;20393;-45
2021/12/06 11:04:17;;;;;;;38.20;23.77;;;2.00;88.30;;;;;;5071819;28;20032;-44
2021/12/06 11:06:51;;;;;;;38.47;26.17;;;2.10;88.30;;;;;;5072039;28;20028;-44
2021/12/06 11:09:25;;;;;;;43.13;25.80;;;2.10;88.30;;;;;;5064962;28;20040;-45
2021/12/06 11:11:58;;;;;;;43.85;27.10;;;2.10;88.30;;;;;;5071905;28;20032;-43
2021/12/06 11:14:30;;;;;;;42.20;25.48;;;2.10;88.20;;;;;;5072204;28;20021;-46
2021/12/06 11:17:05;;;;;;;45.30;26.30;;;2.10;88.00;;;;;;5071569;28;20036;-42
2021/12/06 11:19:32;;;;;;;46.95;28.25;;;2.10;88.30;;;;;;5070461;28;20036;-47
2021/12/06 11:22:22;;;;;;;42.85;26.00;;;2.20;88.20;;;;;;5071932;28;20032;-43
2021/12/06 11:24:51;;;;;;;42.22;27.13;;;2.20;88.00;;;;;;5071753;28;20044;-45
2021/12/06 11:27:39;;;;;;;41.47;24.92;;;2.20;87.90;;;;;;5070593;28;20047;-45
2021/12/06 11:30:11;;;;;;;43.67;26.00;;;2.20;87.90;;;;;;5071265;28;20048;-42
2021/12/06 11:32:56;;;;;;;39.83;26.40;;;2.20;88.00;;;;;;5071452;28;20047;-44
2021/12/06 11:35:25;;;;;;;44.85;26.88;;;2.20;87.80;;;;;;5071858;28;20301;-45
2021/12/06 11:38:00;;;;;;;39.83;25.40;;;2.30;88.00;;;;;;5066954;28;20048;-43
2021/12/06 11:40:33;;;;;;;43.65;25.17;;;2.30;87.90;;;;;;5071520;28;20030;-48
2021/12/06 11:43:06;;;;;;;40.30;24.45;;;2.30;88.00;;;;;;5057901;28;20036;-44
2021/12/06 11:45:50;;;;;;;45.25;25.13;;;2.30;88.00;;;;;;5071704;28;20342;-43
2021/12/06 11:48:35;;;;;;;41.35;26.08;;;2.30;88.00;;;;;;5053918;28;20031;-46
2021/12/06 11:51:11;;;;;;;43.20;27.08;;;2.40;88.10;;;;;;5070718;28;20464;-44
2021/12/06 11:53:48;;;;;;;42.03;25.85;;;2.30;88.00;;;;;;5033888;28;20358;-43
2021/12/06 11:56:21;;;;;;;37.03;24.35;;;2.40;88.00;;;;;;5058703;28;20038;-45
2021/12/06 11:58:54;;;;;;;42.92;25.00;;;2.40;87.90;;;;;;5071403;28;20043;-46
2021/12/06 12:01:37;;;;;;;40.42;25.58;;;2.40;88.20;;;;;;5057056;28;20028;-45
2021/12/06 12:04:11;;;;;;;42.58;26.27;;;2.40;88.20;;;;;;5071045;28;20043;-45
2021/12/06 12:06:45;;;;;;;37.35;24.00;;;2.40;88.10;;;;;;5070978;28;20541;-46
2021/12/06 12:09:30;;;;;;;38.25;21.88;;;2.30;88.10;;;;;;5061374;28;20040;-43
2021/12/06 12:12:07;;;;;;;31.98;21.40;;;2.30;88.20;;;;;;5081939;28;20038;-46
2021/12/06 12:14:55;;;;;;;33.95;21.73;;;2.30;88.10;;;;;;5071164;28;20028;-42
2021/12/06 12:17:24;;;;;;;36.45;23.58;;;2.30;88.00;;;;;;5068185;28;20052;-46
2021/12/06 12:19:54;;;;;;;37.03;22.98;;;2.40;88.10;;;;;;5070568;28;20032;-49
2021/12/06 12:22:25;;;;;;;33.22;19.60;;;2.40;88.00;;;;;;5071128;28;20025;-44
2021/12/06 12:24:57;;;;;;;35.83;21.00;;;2.40;87.90;;;;;;5070484;28;20411;-42
2021/12/06 12:27:33;;;;;;;33.85;20.55;;;2.40;87.80;;;;;;5070269;28;20461;-43
2021/12/06 12:30:03;;;;;;;31.70;21.58;;;2.40;87.90;;;;;;5070259;28;20067;-44
2021/12/06 12:32:31;;;;;;;32.80;20.77;;;2.50;87.90;;;;;;5068617;28;20033;-44
2021/12/06 12:35:03;;;;;;;27.33;18.02;;;2.50;87.70;;;;;;5070717;28;20043;-44
2021/12/06 12:37:33;;;;;;;31.42;19.50;;;2.50;87.60;;;;;;5069942;28;20583;-44
2021/12/06 12:40:13;;;;;;;30.50;18.77;;;2.60;87.60;;;;;;5050659;28;20097;-45
2021/12/06 12:43:01;;;;;;;;;;;2.50;87.50;;;;;;5053147;28;20055;-43
2021/12/06 12:45:44;;;;;;;28.48;18.02;;;2.60;87.50;;;;;;5070355;28;19951;-45
2021/12/06 12:48:13;;;;;;;32.22;20.02;;;2.70;87.50;;;;;;5049487;28;20040;-47
2021/12/06 12:50:40;;;;;;;31.33;19.00;;;2.70;87.50;;;;;;5021577;28;20462;-44
2021/12/06 12:53:15;;;;;;;30.13;20.00;;;2.70;87.60;;;;;;5069872;28;20090;-47
2021/12/06 12:56:02;;;;;;;31.48;19.83;;;2.70;87.60;;;;;;5070723;28;20412;-46
2021/12/06 12:58:30;;;;;;;32.70;18.88;;;2.70;87.30;;;;;;5070104;28;20060;-44
2021/12/06 13:01:03;;;;;;;33.03;20.13;;;2.70;87.50;;;;;;5070274;28;20162;-47
2021/12/06 13:03:46;;;;;;;32.10;19.05;;;2.70;87.50;;;;;;5053615;28;20094;-45
2021/12/06 13:06:25;;;;;;;35.67;20.13;;;2.80;87.50;;;;;;5069855;28;20024;-46
2021/12/06 13:09:05;;;;;;;34.13;19.83;;;2.80;87.50;;;;;;5069446;28;20043;-46
2021/12/06 13:11:45;;;;;;;;;;;2.80;87.60;;;;;;5082496;28;20384;-43